Portada
METAR-TAF:

METAR-TAF

Aeroports :

Suva, Fiji

latitud: 18-03S, longitud: 178-34E, altitud: 5 m

Observació

L'informe es va fer fa 1 hora i 3 minuts, a les 17:00 UTC
Vent 3 kt del Nord/Nord-Oest
Temperatura 21°C
Humitat 100%
Pressió 1012 hPa
Visibilitat: 0200 m
Cel ennuvolat a una alçada de 200 ft
(forta) boira

METAR: NFNA 251700Z 33003KT 0200 +FG BKN002 21/21 Q1012

Hora: 06:03 (18:03 UTC)

Pronòstic

L'informe es va fer fa 52 minuts, a les 17:11 UTC
Pronòstic vàlid del 25 a les 18 UTC al 26 a les 18 UTC
Vent 5 kt del Nord-Oest
Visibilitat 10 km o més
Cel ennuvolat a una alçada de 400 ft
A partir de les 25 a les 1830 UTC
Vent 6 kt del Nord/Nord-Oest
Visibilitat 10 km o més
Núvols disperses a una alçada de 1800 ft
A partir de les 26 a les 0100 UTC
Vent 8 kt del Est/Sud-Est
Visibilitat 10 km o més
Núvols disperses a una alçada de 2000 ft
Núvols disperses a una alçada de 5000 ft

TAF: NFNA 251711Z 2518/2618 32005KT 9999 BKN004 FM251830 33006KT 9999 SCT018 FM260100 11008KT 9999 SCT020 SCT050

Observacions i pronòstics meteorològics de més de 4000 aeroports (METAR i TAF).

Les estacions disponibles són els punts grocs i vermells al mapa.

Posi el ratolí al punt desitjat per veure el nom de l'estació.

Feu clic per veure les observacions i els pronòstics meteorològics.

Per canviar el mapa: feu clic els botons verds amb una creu de color negre per apropar; al botó verd amb un guió per allunyar la imatge; o en les fletxes verdes per a mapes adjacents.


METAR-TAF: